Time;durP1;ratioP1;P1;durP2;ratioP2;P2;SDS_P1;SDS_P2;PMS_P1;PMS_P2;Temp;Humidity;BMP_temperature;BMP_pressure;BME280_temperature;BME280_humidity;BME280_pressure;Samples;Min_cycle;Max_cycle;Signal;HPM_P1;HPM_P2
2024/01/26 00:01:55;;;;;;;2.65;2.20;;;11.20;99.90;;;;;;5140178;27;20039;-55
2024/01/26 00:04:20;;;;;;;2.35;2.15;;;11.20;99.90;;;;;;5139882;27;20037;-57
2024/01/26 00:06:47;;;;;;;2.33;1.90;;;11.20;99.90;;;;;;5139338;27;20093;-56
2024/01/26 00:09:15;;;;;;;2.75;2.00;;;11.10;99.90;;;;;;5121919;27;20027;-57
2024/01/26 00:11:43;;;;;;;2.47;2.00;;;11.00;99.90;;;;;;5139796;27;20035;-56
2024/01/26 00:14:09;;;;;;;2.25;1.85;;;11.00;99.90;;;;;;5122099;27;20088;-56
2024/01/26 00:16:38;;;;;;;2.33;2.00;;;11.00;99.90;;;;;;5139744;27;20019;-57
2024/01/26 00:19:08;;;;;;;2.75;1.70;;;11.00;99.90;;;;;;5139675;27;20088;-56
2024/01/26 00:21:34;;;;;;;2.42;2.13;;;11.00;99.90;;;;;;5139645;27;20035;-56
2024/01/26 00:24:00;;;;;;;2.10;1.80;;;11.10;99.90;;;;;;5139501;27;20402;-56
2024/01/26 00:26:26;;;;;;;3.92;2.05;;;11.10;99.90;;;;;;5139768;27;20039;-56
2024/01/26 00:28:52;;;;;;;3.72;1.90;;;11.10;99.90;;;;;;5139817;27;20023;-57
2024/01/26 00:31:18;;;;;;;2.90;2.08;;;11.10;99.90;;;;;;5104902;27;20031;-56
2024/01/26 00:33:45;;;;;;;4.03;2.17;;;11.10;99.90;;;;;;5139424;27;20080;-56
2024/01/26 00:36:12;;;;;;;2.20;2.00;;;11.10;99.90;;;;;;5139303;27;20128;-57
2024/01/26 00:38:38;;;;;;;4.93;2.15;;;11.20;99.90;;;;;;5121230;27;20046;-57
2024/01/26 00:41:07;;;;;;;3.22;2.30;;;11.20;99.90;;;;;;5139209;27;20150;-56
2024/01/26 00:43:33;;;;;;;3.92;2.60;;;11.20;99.90;;;;;;5139145;27;20035;-56
2024/01/26 00:45:59;;;;;;;3.30;2.22;;;11.10;99.90;;;;;;5121274;27;20393;-56
2024/01/26 00:48:25;;;;;;;2.88;2.58;;;11.20;99.90;;;;;;5139080;27;20145;-56
2024/01/26 00:50:51;;;;;;;5.25;3.08;;;11.20;99.90;;;;;;5139176;27;20122;-56
2024/01/26 00:53:17;;;;;;;6.03;3.95;;;11.20;99.90;;;;;;5138995;27;20041;-56
2024/01/26 00:55:44;;;;;;;4.57;3.60;;;11.10;99.90;;;;;;5121011;27;20027;-56
2024/01/26 00:58:10;;;;;;;5.60;4.30;;;11.20;99.90;;;;;;5138823;27;20042;-56
2024/01/26 01:00:36;;;;;;;4.72;4.30;;;11.10;99.90;;;;;;5121122;27;20382;-56
2024/01/26 01:03:02;;;;;;;7.32;5.07;;;11.00;99.90;;;;;;5138782;27;20134;-56
2024/01/26 01:05:28;;;;;;;9.05;5.28;;;11.10;99.90;;;;;;5138754;27;20113;-56
2024/01/26 01:07:53;;;;;;;7.40;5.28;;;11.10;99.90;;;;;;5138892;27;20038;-57
2024/01/26 01:10:19;;;;;;;8.48;5.70;;;11.10;99.90;;;;;;5138545;27;20035;-56
2024/01/26 01:12:45;;;;;;;9.68;6.05;;;11.10;99.90;;;;;;5138651;27;20023;-56
2024/01/26 01:15:11;;;;;;;6.95;5.82;;;11.10;99.90;;;;;;5138557;27;20096;-56
2024/01/26 01:17:45;;;;;;;8.38;6.10;;;11.10;99.90;;;;;;5137601;27;20451;-56
2024/01/26 01:20:13;;;;;;;7.00;5.78;;;11.10;99.90;;;;;;5120689;27;20042;-56
2024/01/26 01:22:44;;;;;;;7.25;5.85;;;11.10;99.90;;;;;;5120582;27;20047;-56
2024/01/26 01:25:13;;;;;;;8.20;5.93;;;11.10;99.90;;;;;;5121284;27;20042;-56
2024/01/26 01:27:40;;;;;;;7.25;5.80;;;11.10;99.90;;;;;;5138357;27;20034;-56
2024/01/26 01:30:07;;;;;;;9.32;5.65;;;11.10;99.90;;;;;;5138536;27;20118;-57
2024/01/26 01:32:34;;;;;;;6.95;5.43;;;11.10;99.90;;;;;;5103891;27;20100;-56
2024/01/26 01:35:00;;;;;;;6.68;5.45;;;11.10;99.90;;;;;;5120626;27;20091;-56
2024/01/26 01:37:26;;;;;;;7.32;5.53;;;11.10;99.90;;;;;;5103342;27;20390;-56
2024/01/26 01:39:51;;;;;;;8.50;5.03;;;11.10;99.90;;;;;;5138353;27;20344;-56
2024/01/26 01:42:17;;;;;;;7.30;5.55;;;11.20;99.90;;;;;;5138133;27;20035;-56
2024/01/26 01:44:45;;;;;;;5.88;5.10;;;11.20;99.90;;;;;;5120308;27;20047;-56
2024/01/26 01:47:12;;;;;;;7.40;5.25;;;11.20;99.90;;;;;;5138154;27;20023;-56
2024/01/26 01:49:39;;;;;;;6.35;4.78;;;11.20;99.90;;;;;;5138013;27;20019;-56
2024/01/26 01:52:18;;;;;;;7.97;4.88;;;11.20;99.90;;;;;;5138404;27;20087;-56
2024/01/26 01:54:44;;;;;;;6.05;4.80;;;11.10;99.90;;;;;;5138409;27;20121;-56
2024/01/26 01:57:14;;;;;;;7.28;4.68;;;11.10;99.90;;;;;;5138017;27;20401;-56
2024/01/26 01:59:41;;;;;;;7.68;5.35;;;11.10;99.90;;;;;;5137975;28;20034;-56
2024/01/26 02:02:07;;;;;;;6.03;4.85;;;11.10;99.90;;;;;;5138185;28;20027;-55
2024/01/26 02:04:33;;;;;;;5.25;4.70;;;11.20;99.90;;;;;;5138002;28;20019;-56
2024/01/26 02:07:01;;;;;;;10.23;5.07;;;11.20;99.90;;;;;;5138200;28;20023;-56
2024/01/26 02:09:28;;;;;;;6.50;5.13;;;11.20;99.90;;;;;;5119950;28;20091;-56
2024/01/26 02:11:54;;;;;;;6.35;5.10;;;11.10;99.90;;;;;;5137771;28;20038;-56
2024/01/26 02:14:20;;;;;;;6.95;5.43;;;11.10;99.90;;;;;;5137800;28;20092;-56
2024/01/26 02:16:59;;;;;;;8.55;5.38;;;11.20;99.90;;;;;;5119912;28;20031;-56
2024/01/26 02:19:26;;;;;;;7.72;6.00;;;11.20;99.90;;;;;;5137918;28;20135;-56
2024/01/26 02:21:52;;;;;;;6.70;5.35;;;11.20;99.90;;;;;;5120021;28;20029;-55
2024/01/26 02:24:18;;;;;;;6.93;5.68;;;11.20;99.90;;;;;;5137781;28;20310;-57
2024/01/26 02:26:44;;;;;;;8.82;5.70;;;11.20;99.90;;;;;;5120004;28;20035;-57
2024/01/26 02:29:10;;;;;;;7.07;5.75;;;11.20;99.90;;;;;;5139372;27;20390;-57
2024/01/26 02:31:36;;;;;;;9.35;5.97;;;11.10;99.90;;;;;;5141864;27;20406;-57
2024/01/26 02:34:01;;;;;;;7.28;5.40;;;11.20;99.90;;;;;;5124067;27;20049;-57
2024/01/26 02:36:33;;;;;;;8.32;5.43;;;11.20;99.90;;;;;;5142060;27;20115;-57
2024/01/26 02:38:59;;;;;;;6.82;5.20;;;11.20;99.90;;;;;;5141553;27;20062;-57
2024/01/26 02:41:25;;;;;;;7.50;6.03;;;11.20;99.90;;;;;;5141611;27;20019;-57
2024/01/26 02:43:51;;;;;;;7.25;6.10;;;11.20;99.90;;;;;;5141562;27;20094;-57
2024/01/26 02:46:17;;;;;;;8.02;6.05;;;11.20;99.90;;;;;;5141540;27;20106;-57
2024/01/26 02:48:43;;;;;;;10.13;5.70;;;11.20;99.90;;;;;;5123610;27;20035;-57
2024/01/26 02:51:09;;;;;;;8.38;5.60;;;11.20;99.90;;;;;;5123407;27;20180;-57
2024/01/26 02:53:41;;;;;;;10.40;6.07;;;11.20;99.90;;;;;;5141347;27;20019;-56
2024/01/26 02:56:07;;;;;;;8.35;5.68;;;11.20;99.90;;;;;;5141345;27;20038;-57
2024/01/26 02:58:33;;;;;;;7.72;5.40;;;11.20;99.90;;;;;;5141245;27;20024;-57
2024/01/26 03:01:00;;;;;;;6.85;5.57;;;11.20;99.90;;;;;;5123539;27;20031;-57
2024/01/26 03:03:26;;;;;;;8.77;5.70;;;11.30;99.90;;;;;;5141168;27;20020;-58
2024/01/26 03:05:52;;;;;;;7.88;5.72;;;11.20;99.90;;;;;;5141348;27;20088;-57
2024/01/26 03:08:18;;;;;;;10.52;6.20;;;11.20;99.90;;;;;;5106233;27;20126;-57
2024/01/26 03:10:44;;;;;;;7.18;5.75;;;11.20;99.90;;;;;;5141000;27;20030;-57
2024/01/26 03:13:09;;;;;;;7.55;5.38;;;11.20;99.90;;;;;;5123261;27;20027;-58
2024/01/26 03:15:36;;;;;;;7.60;6.35;;;11.20;99.90;;;;;;5140999;27;20394;-58
2024/01/26 03:18:01;;;;;;;7.18;5.38;;;11.20;99.90;;;;;;5140880;27;20027;-56
2024/01/26 03:20:27;;;;;;;8.02;5.35;;;11.20;99.90;;;;;;5140935;27;20057;-56
2024/01/26 03:22:53;;;;;;;6.32;5.45;;;11.20;99.90;;;;;;5122912;27;20431;-56
2024/01/26 03:25:19;;;;;;;7.38;5.72;;;11.30;99.90;;;;;;5140840;27;20462;-56
2024/01/26 03:27:45;;;;;;;9.75;6.07;;;11.20;99.90;;;;;;5140652;27;20039;-56
2024/01/26 03:30:11;;;;;;;6.35;5.65;;;11.20;99.90;;;;;;5140854;27;20165;-56
2024/01/26 03:32:36;;;;;;;9.18;5.78;;;11.20;99.90;;;;;;5140568;27;20305;-57
2024/01/26 03:35:02;;;;;;;7.13;5.60;;;11.30;99.90;;;;;;5140636;27;20023;-57
2024/01/26 03:37:28;;;;;;;7.90;6.10;;;11.30;99.90;;;;;;5122766;27;20024;-56
2024/01/26 03:39:54;;;;;;;11.13;5.97;;;11.20;99.90;;;;;;5140000;27;20409;-57
2024/01/26 03:42:19;;;;;;;9.23;5.95;;;11.30;99.90;;;;;;5140130;27;20090;-57
2024/01/26 03:44:45;;;;;;;12.18;5.68;;;11.30;99.90;;;;;;5105527;27;20032;-56
2024/01/26 03:47:11;;;;;;;9.43;6.00;;;11.30;99.90;;;;;;5140361;27;20338;-57
2024/01/26 03:49:41;;;;;;;8.10;6.00;;;11.20;99.90;;;;;;5122466;27;20055;-57
2024/01/26 03:52:07;;;;;;;11.02;6.15;;;11.20;99.90;;;;;;5140445;27;20027;-56
2024/01/26 03:54:32;;;;;;;10.40;5.97;;;11.30;99.90;;;;;;5140308;27;20026;-56
2024/01/26 03:56:58;;;;;;;8.73;5.97;;;11.30;99.90;;;;;;5140381;27;20023;-57
2024/01/26 03:59:24;;;;;;;6.20;5.60;;;11.30;99.90;;;;;;5140103;27;20038;-57
2024/01/26 04:01:49;;;;;;;11.50;6.30;;;11.30;99.90;;;;;;5140086;27;20099;-56
2024/01/26 04:04:15;;;;;;;8.40;5.63;;;11.30;99.90;;;;;;5140511;27;20118;-57
2024/01/26 04:06:41;;;;;;;9.32;6.15;;;11.30;99.90;;;;;;5139942;27;20095;-60
2024/01/26 04:09:08;;;;;;;8.30;5.80;;;11.30;99.90;;;;;;5139909;27;20034;-56
2024/01/26 04:11:34;;;;;;;9.32;6.28;;;11.30;99.90;;;;;;5139813;27;20488;-57
2024/01/26 04:14:00;;;;;;;10.02;6.55;;;11.20;99.90;;;;;;5139897;27;20031;-57
2024/01/26 04:16:26;;;;;;;9.07;6.15;;;11.20;99.90;;;;;;5122076;27;20390;-57
2024/01/26 04:18:52;;;;;;;9.07;6.57;;;11.20;99.90;;;;;;5139712;27;20406;-57
2024/01/26 04:21:17;;;;;;;8.68;6.03;;;11.20;99.90;;;;;;5122181;27;20115;-57
2024/01/26 04:23:43;;;;;;;8.85;6.82;;;11.10;99.90;;;;;;5121666;27;20051;-58
2024/01/26 04:26:09;;;;;;;12.77;7.47;;;11.10;99.90;;;;;;5139619;27;20031;-58
2024/01/26 04:28:35;;;;;;;8.77;6.65;;;11.00;99.90;;;;;;5121884;27;20039;-58
2024/01/26 04:31:01;;;;;;;8.85;6.35;;;11.00;99.90;;;;;;5139471;27;20445;-58
2024/01/26 04:33:26;;;;;;;11.13;7.55;;;11.00;99.90;;;;;;5139399;27;20078;-57
2024/01/26 04:35:52;;;;;;;10.52;6.90;;;10.90;99.90;;;;;;5121716;27;20126;-57
2024/01/26 04:38:18;;;;;;;10.95;7.38;;;10.90;99.90;;;;;;5139141;27;20047;-57
2024/01/26 04:40:44;;;;;;;10.75;7.13;;;10.90;99.90;;;;;;5139564;27;20027;-57
2024/01/26 04:43:10;;;;;;;10.02;7.05;;;10.90;99.90;;;;;;5139198;27;20035;-57
2024/01/26 04:45:35;;;;;;;8.73;7.10;;;10.90;99.90;;;;;;5139166;27;20394;-57
2024/01/26 04:48:01;;;;;;;14.45;7.68;;;10.90;99.90;;;;;;5121516;27;20095;-57
2024/01/26 04:50:27;;;;;;;10.40;7.75;;;10.80;99.90;;;;;;5121291;27;20027;-57
2024/01/26 04:52:53;;;;;;;11.00;8.05;;;10.80;99.90;;;;;;5138877;27;20039;-58
2024/01/26 04:55:24;;;;;;;12.90;8.25;;;10.80;99.90;;;;;;5104152;27;20031;-58
2024/01/26 04:57:49;;;;;;;11.48;7.63;;;10.80;99.90;;;;;;5139205;27;20408;-58
2024/01/26 05:00:17;;;;;;;14.23;8.55;;;10.70;99.90;;;;;;5138903;27;20135;-61
2024/01/26 05:02:43;;;;;;;12.05;7.60;;;10.70;99.90;;;;;;5120995;27;20031;-58
2024/01/26 05:05:11;;;;;;;14.15;9.07;;;10.70;99.90;;;;;;5121052;27;20027;-57
2024/01/26 05:07:37;;;;;;;12.88;8.13;;;10.70;99.90;;;;;;5138744;27;20369;-58
2024/01/26 05:10:05;;;;;;;14.30;8.77;;;10.70;99.90;;;;;;5138631;27;20114;-57
2024/01/26 05:12:31;;;;;;;16.17;9.00;;;10.70;99.90;;;;;;5138628;27;20110;-57
2024/01/26 05:14:57;;;;;;;10.10;8.10;;;10.60;99.90;;;;;;5120846;27;20044;-58
2024/01/26 05:17:23;;;;;;;11.18;8.13;;;10.60;99.90;;;;;;5121036;27;20023;-57
2024/01/26 05:19:49;;;;;;;12.27;8.07;;;10.60;99.90;;;;;;5138531;27;20026;-56
2024/01/26 05:22:15;;;;;;;11.40;8.68;;;10.60;99.90;;;;;;5138563;27;20286;-55
2024/01/26 05:24:40;;;;;;;14.75;9.52;;;10.60;99.90;;;;;;5138367;27;20110;-56
2024/01/26 05:27:07;;;;;;;14.50;9.05;;;10.60;99.90;;;;;;5120477;27;20027;-55
2024/01/26 05:29:33;;;;;;;13.38;9.18;;;10.60;99.90;;;;;;5104042;27;20092;-56
2024/01/26 05:31:59;;;;;;;13.90;9.60;;;10.60;99.90;;;;;;5120428;27;20035;-54
2024/01/26 05:34:25;;;;;;;15.15;9.65;;;10.60;99.90;;;;;;5138566;27;20364;-54
2024/01/26 05:36:51;;;;;;;14.90;10.07;;;10.60;99.90;;;;;;5138530;27;20065;-56
2024/01/26 05:39:17;;;;;;;14.43;9.50;;;10.60;99.90;;;;;;5138057;27;20054;-54
2024/01/26 05:41:43;;;;;;;16.33;9.95;;;10.60;99.90;;;;;;5138189;27;20393;-54
2024/01/26 05:44:12;;;;;;;16.65;9.73;;;10.60;99.90;;;;;;5138203;27;20089;-53
2024/01/26 05:46:38;;;;;;;15.63;9.38;;;10.60;99.90;;;;;;5138201;27;20089;-54
2024/01/26 05:49:03;;;;;;;12.82;9.82;;;10.70;99.90;;;;;;5120193;27;20083;-55
2024/01/26 05:51:29;;;;;;;14.52;9.20;;;10.70;99.90;;;;;;5138112;27;20263;-57
2024/01/26 05:53:55;;;;;;;14.40;8.77;;;10.70;99.90;;;;;;5137990;27;20035;-54
2024/01/26 05:56:24;;;;;;;14.70;9.25;;;10.70;99.90;;;;;;5103170;27;20031;-53
2024/01/26 05:58:52;;;;;;;13.82;9.35;;;10.70;99.90;;;;;;5137953;27;20062;-55
2024/01/26 06:01:18;;;;;;;17.25;9.50;;;10.70;99.90;;;;;;5137823;27;20499;-54
2024/01/26 06:03:44;;;;;;;14.07;8.30;;;10.70;99.90;;;;;;5137319;27;20038;-56
2024/01/26 06:06:09;;;;;;;15.55;8.63;;;10.70;99.90;;;;;;5119877;28;20019;-55
2024/01/26 06:08:36;;;;;;;13.73;8.38;;;10.80;99.90;;;;;;5119900;28;20110;-54
2024/01/26 06:11:04;;;;;;;12.10;8.48;;;10.80;99.90;;;;;;5137587;28;20043;-53
2024/01/26 06:13:30;;;;;;;13.85;8.25;;;10.80;99.90;;;;;;5137704;28;20015;-54
2024/01/26 06:15:55;;;;;;;10.23;7.70;;;10.80;99.90;;;;;;5137801;28;20085;-57
2024/01/26 06:18:21;;;;;;;11.85;7.65;;;10.80;99.90;;;;;;5137680;28;20080;-57
2024/01/26 06:20:47;;;;;;;14.80;7.32;;;10.80;99.90;;;;;;5120255;28;20078;-55
2024/01/26 06:23:13;;;;;;;14.57;8.25;;;10.80;99.90;;;;;;5137631;28;20336;-54
2024/01/26 06:25:39;;;;;;;12.73;7.57;;;10.80;99.90;;;;;;5137737;28;20061;-54
2024/01/26 06:28:05;;;;;;;12.88;7.70;;;10.80;99.90;;;;;;5137749;28;20092;-54
2024/01/26 06:30:31;;;;;;;11.90;6.70;;;10.80;99.90;;;;;;5137579;28;20039;-54
2024/01/26 06:32:56;;;;;;;9.52;6.57;;;10.80;99.90;;;;;;5137975;28;20390;-54
2024/01/26 06:35:22;;;;;;;11.30;6.50;;;10.90;99.90;;;;;;5137583;28;20019;-56
2024/01/26 06:37:48;;;;;;;9.63;6.00;;;10.90;99.90;;;;;;5137549;28;20046;-55
2024/01/26 06:40:14;;;;;;;9.55;6.43;;;10.90;99.90;;;;;;5137579;28;20076;-55
2024/01/26 06:42:41;;;;;;;9.68;6.13;;;11.00;99.90;;;;;;5119687;28;20050;-56
2024/01/26 06:45:11;;;;;;;8.02;6.05;;;10.90;99.90;;;;;;5119755;28;20027;-54
2024/01/26 06:47:37;;;;;;;10.50;6.65;;;11.00;99.90;;;;;;5137425;28;20046;-55
2024/01/26 06:50:04;;;;;;;8.57;5.80;;;11.00;99.90;;;;;;5137357;28;20077;-55
2024/01/26 06:52:31;;;;;;;10.30;5.88;;;11.00;99.90;;;;;;5137626;28;20334;-54
2024/01/26 06:54:57;;;;;;;12.18;6.70;;;11.00;99.90;;;;;;5137349;28;20029;-55
2024/01/26 06:57:23;;;;;;;6.68;5.78;;;11.10;99.90;;;;;;5137316;28;20069;-55
2024/01/26 06:59:49;;;;;;;10.25;5.75;;;11.10;99.90;;;;;;5137333;28;20348;-55
2024/01/26 07:02:14;;;;;;;10.20;6.20;;;11.20;99.90;;;;;;5120211;28;20287;-56
2024/01/26 07:04:40;;;;;;;8.25;6.20;;;11.20;99.90;;;;;;5137265;28;20302;-56
2024/01/26 07:07:06;;;;;;;8.23;6.07;;;11.20;99.90;;;;;;5137267;28;20046;-55
2024/01/26 07:09:32;;;;;;;8.43;6.32;;;11.20;99.90;;;;;;5102307;28;20035;-56
2024/01/26 07:11:58;;;;;;;9.05;6.10;;;11.20;99.90;;;;;;5137225;28;20038;-56
2024/01/26 07:14:24;;;;;;;8.65;5.80;;;11.20;99.90;;;;;;5137254;27;20023;-56
2024/01/26 07:16:50;;;;;;;7.55;5.97;;;11.20;99.90;;;;;;5139819;27;20046;-57
2024/01/26 07:19:16;;;;;;;9.57;6.00;;;11.20;99.90;;;;;;5140731;27;20104;-56
2024/01/26 07:21:42;;;;;;;10.68;5.93;;;11.30;99.90;;;;;;5140729;27;20127;-56
2024/01/26 07:24:08;;;;;;;7.50;5.55;;;11.30;99.90;;;;;;5140705;27;20071;-56
2024/01/26 07:26:34;;;;;;;9.85;5.88;;;11.30;99.90;;;;;;5140803;27;20373;-56
2024/01/26 07:29:00;;;;;;;10.43;6.38;;;11.30;99.90;;;;;;5140988;27;20027;-54
2024/01/26 07:31:26;;;;;;;12.00;5.78;;;11.40;99.90;;;;;;5140773;27;20106;-57
2024/01/26 07:33:52;;;;;;;8.18;5.82;;;11.50;99.90;;;;;;5140610;27;20195;-57
2024/01/26 07:36:18;;;;;;;10.10;5.70;;;11.40;99.90;;;;;;5122716;27;20096;-56
2024/01/26 07:38:44;;;;;;;6.05;5.28;;;11.40;99.90;;;;;;5105599;27;20054;-56
2024/01/26 07:41:09;;;;;;;7.75;5.40;;;11.50;99.90;;;;;;5140516;27;20039;-56
2024/01/26 07:43:35;;;;;;;8.10;5.53;;;11.50;99.90;;;;;;5122535;27;20341;-56
2024/01/26 07:46:01;;;;;;;7.78;5.20;;;11.60;99.90;;;;;;5140582;27;20035;-56
2024/01/26 07:48:27;;;;;;;8.25;5.20;;;11.60;99.90;;;;;;5140295;27;20477;-56
2024/01/26 07:50:52;;;;;;;7.72;4.90;;;11.60;99.90;;;;;;5140262;27;20408;-56
2024/01/26 07:53:18;;;;;;;7.35;4.80;;;11.60;99.90;;;;;;5140238;27;20110;-56
2024/01/26 07:55:44;;;;;;;8.23;4.82;;;11.50;99.90;;;;;;5140202;27;20027;-58
2024/01/26 07:58:10;;;;;;;7.00;4.50;;;11.50;99.90;;;;;;5140108;27;20119;-57
2024/01/26 08:00:36;;;;;;;7.90;4.65;;;11.60;99.90;;;;;;5140133;27;20027;-57
2024/01/26 08:03:03;;;;;;;7.10;4.38;;;11.70;99.90;;;;;;5140059;27;20045;-56
2024/01/26 08:05:29;;;;;;;6.07;4.57;;;11.80;99.90;;;;;;5122174;27;20027;-57
2024/01/26 08:07:55;;;;;;;7.53;4.50;;;11.80;99.90;;;;;;5139966;27;20038;-55
2024/01/26 08:10:20;;;;;;;7.22;4.30;;;11.80;99.90;;;;;;5139859;27;20031;-57
2024/01/26 08:12:46;;;;;;;7.57;4.38;;;11.90;99.90;;;;;;5139813;27;20406;-57
2024/01/26 08:15:12;;;;;;;7.18;4.55;;;11.90;99.90;;;;;;5122026;27;20123;-59
2024/01/26 08:17:38;;;;;;;6.75;4.18;;;12.00;99.90;;;;;;5122038;27;20031;-56
2024/01/26 08:20:05;;;;;;;5.93;4.57;;;12.00;99.90;;;;;;5121740;27;20027;-57
2024/01/26 08:22:31;;;;;;;7.72;4.88;;;12.10;99.90;;;;;;5121856;27;20039;-57
2024/01/26 08:25:00;;;;;;;6.70;4.50;;;12.00;99.90;;;;;;5139652;27;20038;-56
2024/01/26 08:27:27;;;;;;;9.15;4.70;;;12.10;99.90;;;;;;5122027;27;20122;-57
2024/01/26 08:29:53;;;;;;;10.55;4.80;;;12.00;99.90;;;;;;5139433;27;20409;-54
2024/01/26 08:32:19;;;;;;;6.90;4.60;;;12.00;99.90;;;;;;5139406;27;20032;-56
2024/01/26 08:34:45;;;;;;;7.28;4.40;;;11.90;99.90;;;;;;5139456;27;20076;-56
2024/01/26 08:37:11;;;;;;;10.23;4.70;;;12.10;99.90;;;;;;5104589;27;20038;-57
2024/01/26 08:39:37;;;;;;;5.43;4.38;;;12.20;99.90;;;;;;5104509;27;20043;-56
2024/01/26 08:42:04;;;;;;;9.23;5.22;;;12.10;99.90;;;;;;5139221;27;20096;-56
2024/01/26 08:44:32;;;;;;;14.55;5.47;;;12.00;99.90;;;;;;5139228;27;20069;-60
2024/01/26 08:46:58;;;;;;;9.02;4.93;;;11.90;99.90;;;;;;5139065;27;20061;-57
2024/01/26 08:49:24;;;;;;;7.40;4.60;;;12.00;99.90;;;;;;5139242;27;20350;-55
2024/01/26 08:51:53;;;;;;;10.65;5.00;;;12.00;99.90;;;;;;5121303;27;20039;-57
2024/01/26 08:54:19;;;;;;;8.48;4.57;;;11.90;99.90;;;;;;5138941;27;20088;-56
2024/01/26 08:56:45;;;;;;;10.73;5.07;;;11.90;99.90;;;;;;5138971;27;20027;-59
2024/01/26 08:59:11;;;;;;;9.32;4.57;;;11.90;99.90;;;;;;5138912;27;20074;-56
2024/01/26 09:01:38;;;;;;;11.50;4.68;;;11.90;99.90;;;;;;5138895;27;20055;-57
2024/01/26 09:04:08;;;;;;;12.20;4.78;;;12.00;99.90;;;;;;5138906;27;20027;-57
2024/01/26 09:06:37;;;;;;;8.23;3.72;;;12.10;99.90;;;;;;5120717;27;20394;-58
2024/01/26 09:09:04;;;;;;;7.63;3.70;;;12.00;99.90;;;;;;5138630;27;20038;-53
2024/01/26 09:11:30;;;;;;;12.13;2.80;;;12.00;99.90;;;;;;5138446;27;20046;-56
2024/01/26 09:13:56;;;;;;;5.18;1.63;;;11.80;99.90;;;;;;5138703;27;20495;-55
2024/01/26 09:16:23;;;;;;;7.63;2.22;;;11.60;99.90;;;;;;5138663;27;20019;-55
2024/01/26 09:18:48;;;;;;;11.32;3.15;;;11.40;99.90;;;;;;5138818;27;20393;-56
2024/01/26 09:21:14;;;;;;;8.90;2.92;;;11.30;99.90;;;;;;5138549;27;20109;-56
2024/01/26 09:23:43;;;;;;;10.90;2.65;;;11.20;99.90;;;;;;5138361;27;20045;-55
2024/01/26 09:26:10;;;;;;;11.73;2.10;;;11.20;99.90;;;;;;5120476;27;20031;-55
2024/01/26 09:28:36;;;;;;;7.90;1.63;;;11.20;99.90;;;;;;5138187;27;20065;-56
2024/01/26 09:31:02;;;;;;;6.65;1.20;;;11.10;99.90;;;;;;5138531;27;20382;-55
2024/01/26 09:33:28;;;;;;;6.80;1.20;;;11.00;99.90;;;;;;5120270;27;20035;-54
2024/01/26 09:35:56;;;;;;;8.57;1.20;;;10.90;99.90;;;;;;5120364;27;20027;-57
2024/01/26 09:38:23;;;;;;;6.40;1.45;;;10.80;99.90;;;;;;5137337;27;20039;-56
2024/01/26 09:40:49;;;;;;;5.85;1.10;;;10.70;99.90;;;;;;5120363;27;20034;-57
2024/01/26 09:43:15;;;;;;;7.05;1.45;;;10.70;99.90;;;;;;5138242;27;20352;-57
2024/01/26 09:45:41;;;;;;;5.03;1.35;;;10.80;99.90;;;;;;5120174;27;20197;-61
2024/01/26 09:48:08;;;;;;;7.75;0.98;;;10.70;99.90;;;;;;5138311;27;20109;-56
2024/01/26 09:50:35;;;;;;;7.47;1.33;;;10.70;99.90;;;;;;5137932;27;20288;-60
2024/01/26 09:53:05;;;;;;;8.45;1.70;;;10.70;99.90;;;;;;5138043;27;20072;-59
2024/01/26 09:55:34;;;;;;;6.75;1.17;;;10.70;99.90;;;;;;5137838;27;20043;-59
2024/01/26 09:58:00;;;;;;;10.52;1.10;;;10.60;99.90;;;;;;5119951;27;20038;-57
2024/01/26 10:00:26;;;;;;;5.75;0.90;;;10.70;99.90;;;;;;5137893;27;20038;-59
2024/01/26 10:02:52;;;;;;;7.80;1.02;;;10.70;99.90;;;;;;5137833;27;20023;-59
2024/01/26 10:05:18;;;;;;;5.72;0.88;;;10.70;99.90;;;;;;5137758;28;20112;-63
2024/01/26 10:07:45;;;;;;;7.85;1.35;;;10.80;99.90;;;;;;5137919;28;20045;-61
2024/01/26 10:10:11;;;;;;;6.63;1.25;;;10.70;99.90;;;;;;5137714;28;20031;-58
2024/01/26 10:12:38;;;;;;;6.57;0.93;;;10.70;99.90;;;;;;5120070;28;20091;-63
2024/01/26 10:15:05;;;;;;;6.05;0.95;;;10.80;99.90;;;;;;5137734;28;20043;-58
2024/01/26 10:17:31;;;;;;;11.40;0.95;;;11.00;99.90;;;;;;5119980;28;20038;-58
2024/01/26 10:20:13;;;;;;;5.95;1.02;;;11.20;99.90;;;;;;5137762;28;20027;-60
2024/01/26 10:22:40;;;;;;;9.18;1.30;;;11.60;99.90;;;;;;5137745;28;20028;-63
2024/01/26 10:25:06;;;;;;;6.03;0.70;;;11.80;99.90;;;;;;5137732;28;20102;-58
2024/01/26 10:27:33;;;;;;;6.65;0.70;;;12.00;92.90;;;;;;5120120;28;20061;-59
2024/01/26 10:29:59;;;;;;;4.32;0.85;;;11.90;66.80;;;;;;5137658;28;20015;-60
2024/01/26 10:32:29;;;;;;;3.28;0.88;;;11.90;56.50;;;;;;5137593;28;20106;-63
2024/01/26 10:35:00;;;;;;;3.45;0.60;;;11.90;47.60;;;;;;5119717;28;20031;-57
2024/01/26 10:37:28;;;;;;;6.45;0.93;;;12.10;37.30;;;;;;5137419;28;20024;-60
2024/01/26 10:39:56;;;;;;;5.38;0.90;;;12.40;31.40;;;;;;5137628;28;20023;-59
2024/01/26 10:42:23;;;;;;;4.50;0.80;;;12.60;16.00;;;;;;5137514;28;20036;-57
2024/01/26 10:44:50;;;;;;;3.65;0.85;;;12.60;17.10;;;;;;5119775;28;20302;-57
2024/01/26 10:47:19;;;;;;;3.35;0.80;;;12.60;1.00;;;;;;5137448;28;20015;-57
2024/01/26 10:49:49;;;;;;;2.97;0.65;;;12.90;1.00;;;;;;5138362;27;20023;-60
2024/01/26 10:52:19;;;;;;;4.88;0.60;;;12.90;1.00;;;;;;5141347;27;20126;-57
2024/01/26 10:54:50;;;;;;;2.72;0.40;;;13.00;1.00;;;;;;5106424;27;20031;-58
2024/01/26 10:57:19;;;;;;;4.30;0.80;;;13.00;1.00;;;;;;5123401;27;20062;-58
2024/01/26 10:59:46;;;;;;;4.20;0.60;;;13.20;1.00;;;;;;5141274;27;20031;-57
2024/01/26 11:02:27;;;;;;;3.28;0.82;;;13.30;1.00;;;;;;5141196;27;20042;-59
2024/01/26 11:04:53;;;;;;;4.65;0.70;;;13.10;1.00;;;;;;5124279;27;20167;-59
2024/01/26 11:07:21;;;;;;;1.42;0.40;;;13.10;1.00;;;;;;5141226;27;20120;-56
2024/01/26 11:09:49;;;;;;;4.15;0.80;;;13.40;1.00;;;;;;5123590;27;20433;-58
2024/01/26 11:12:22;;;;;;;4.45;0.60;;;13.60;1.00;;;;;;5141059;27;20172;-64
2024/01/26 11:15:08;;;;;;;3.38;0.65;;;13.60;1.00;;;;;;5141201;27;20286;-63
2024/01/26 11:18:05;;;;;;;2.83;0.60;;;13.60;1.00;;;;;;5140921;27;20020;-59
2024/01/26 11:20:34;;;;;;;4.22;1.08;;;13.30;1.00;;;;;;5120383;27;20134;-63
2024/01/26 11:23:00;;;;;;;5.20;0.73;;;13.30;1.00;;;;;;5140777;27;20458;-64
2024/01/26 11:25:26;;;;;;;3.03;0.60;;;13.90;1.00;;;;;;5140682;27;20035;-58
2024/01/26 11:27:59;;;;;;;3.90;0.80;;;14.30;1.00;;;;;;5140666;27;20039;-57
2024/01/26 11:30:26;;;;;;;3.85;0.80;;;15.10;99.90;;;;;;5122655;27;20147;-57
2024/01/26 11:32:52;;;;;;;8.48;0.90;;;14.80;99.90;;;;;;5140915;27;20076;-58
2024/01/26 11:35:21;;;;;;;3.90;0.75;;;14.00;99.90;;;;;;5140630;27;20050;-58
2024/01/26 11:37:48;;;;;;;4.00;0.80;;;12.90;1.00;;;;;;5140472;27;20043;-61
2024/01/26 11:40:14;;;;;;;8.30;0.90;;;12.30;1.00;;;;;;5140555;27;20032;-57
2024/01/26 11:42:43;;;;;;;7.68;0.80;;;12.10;1.00;;;;;;5140508;27;20094;-59
2024/01/26 11:45:13;;;;;;;8.90;0.85;;;11.80;1.00;;;;;;5140547;27;20030;-58
2024/01/26 11:47:40;;;;;;;5.10;0.80;;;11.90;1.00;;;;;;5140873;27;20397;-62
2024/01/26 11:50:10;;;;;;;7.00;1.00;;;11.60;1.00;;;;;;5140275;27;20088;-62
2024/01/26 11:52:37;;;;;;;4.85;0.68;;;11.30;1.00;;;;;;5140136;27;20080;-58
2024/01/26 11:55:08;;;;;;;7.38;0.70;;;11.10;1.00;;;;;;5139997;27;20089;-56
2024/01/26 11:57:35;;;;;;;8.73;1.17;;;11.10;1.00;;;;;;5140066;27;20102;-59
2024/01/26 12:00:04;;;;;;;5.32;0.80;;;11.00;1.00;;;;;;5088495;27;20088;-57
2024/01/26 12:02:32;;;;;;;3.70;0.60;;;11.00;1.00;;;;;;5139409;27;20092;-59
2024/01/26 12:04:58;;;;;;;5.82;0.70;;;10.90;1.00;;;;;;5121930;27;20102;-57
2024/01/26 12:07:24;;;;;;;3.78;0.63;;;10.90;1.00;;;;;;5122222;27;20051;-58
2024/01/26 12:09:51;;;;;;;2.45;0.57;;;10.90;1.00;;;;;;5139977;27;20107;-58
2024/01/26 12:12:17;;;;;;;6.30;0.95;;;11.00;1.00;;;;;;5121796;27;20174;-65
2024/01/26 12:14:43;;;;;;;6.47;0.95;;;11.10;1.00;;;;;;5139751;27;20019;-57
2024/01/26 12:17:10;;;;;;;3.65;0.55;;;11.40;1.00;;;;;;5139881;27;20034;-62
2024/01/26 12:19:38;;;;;;;7.00;0.82;;;11.50;1.00;;;;;;5139630;27;20102;-59
2024/01/26 12:22:09;;;;;;;4.85;0.40;;;11.70;1.00;;;;;;5139730;27;20507;-56
2024/01/26 12:24:35;;;;;;;2.67;0.60;;;12.00;1.00;;;;;;5121711;27;20042;-60
2024/01/26 12:27:02;;;;;;;2.40;0.70;;;12.00;1.00;;;;;;5121572;27;20417;-60
2024/01/26 12:29:31;;;;;;;4.65;0.77;;;12.10;1.00;;;;;;5139459;27;20043;-60
2024/01/26 12:32:07;;;;;;;7.60;0.70;;;12.10;99.90;;;;;;5139327;27;20027;-57
2024/01/26 12:34:35;;;;;;;6.93;0.70;;;12.20;99.90;;;;;;5139415;27;20367;-61
2024/01/26 12:37:01;;;;;;;3.45;0.82;;;12.20;47.90;;;;;;5139291;27;20034;-57
2024/01/26 12:39:28;;;;;;;5.63;0.93;;;12.10;99.90;;;;;;5117725;28;20115;-59
2024/01/26 12:41:55;;;;;;;6.82;1.05;;;12.00;99.90;;;;;;5117886;28;20406;-62
2024/01/26 12:44:31;;;;;;;4.90;0.60;;;11.60;99.90;;;;;;5117898;28;20410;-60